createdAt,value
2023-02-17T00:01:12.604Z,9.53
2023-02-17T00:03:39.380Z,8.93
2023-02-17T00:06:09.773Z,9.27
2023-02-17T00:08:36.456Z,9.23
2023-02-17T00:11:03.482Z,10.17
2023-02-17T00:13:29.901Z,10.70
2023-02-17T00:15:56.392Z,9.70
2023-02-17T00:18:23.127Z,10.07
2023-02-17T00:20:49.720Z,8.87
2023-02-17T00:23:16.309Z,9.57
2023-02-17T00:25:42.916Z,9.60
2023-02-17T00:28:09.327Z,9.43
2023-02-17T00:30:37.405Z,9.53
2023-02-17T00:33:03.826Z,10.67
2023-02-17T00:35:30.170Z,11.40
2023-02-17T00:37:56.547Z,9.60
2023-02-17T00:40:22.949Z,9.77
2023-02-17T00:42:49.296Z,9.70
2023-02-17T00:45:15.726Z,10.03
2023-02-17T00:47:42.170Z,10.03
2023-02-17T00:50:08.900Z,10.27
2023-02-17T00:52:36.005Z,9.20
2023-02-17T00:55:02.390Z,8.93
2023-02-17T00:57:32.215Z,8.47
2023-02-17T00:59:58.685Z,10.03
2023-02-17T01:02:25.015Z,9.77
2023-02-17T01:04:51.351Z,10.33
2023-02-17T01:07:17.714Z,10.07
2023-02-17T01:09:44.011Z,10.00
2023-02-17T01:12:11.835Z,9.57
2023-02-17T01:14:38.173Z,9.80
2023-02-17T01:17:04.606Z,9.83
2023-02-17T01:19:31.289Z,10.20
2023-02-17T01:21:57.595Z,10.43
2023-02-17T01:24:24.103Z,8.70
2023-02-17T01:26:50.460Z,8.33
2023-02-17T01:29:16.815Z,10.53
2023-02-17T01:31:43.297Z,8.97
2023-02-17T01:34:10.271Z,8.87
2023-02-17T01:36:36.626Z,9.30
2023-02-17T01:39:03.223Z,9.73
2023-02-17T01:41:29.664Z,9.20
2023-02-17T01:44:14.691Z,8.93
2023-02-17T01:46:42.311Z,9.60
2023-02-17T01:49:26.964Z,9.30
2023-02-17T01:51:57.137Z,8.73
2023-02-17T01:54:27.282Z,8.67
2023-02-17T01:56:56.046Z,8.97
2023-02-17T01:59:22.617Z,8.97
2023-02-17T02:01:54.592Z,8.07
2023-02-17T02:04:22.466Z,8.47
2023-02-17T02:06:49.025Z,9.00
2023-02-17T02:09:20.398Z,8.97
2023-02-17T02:11:48.008Z,9.63
2023-02-17T02:14:14.400Z,8.80
2023-02-17T02:16:49.886Z,9.17
2023-02-17T02:19:22.163Z,7.80
2023-02-17T02:21:48.524Z,8.37
2023-02-17T02:24:23.139Z,8.73
2023-02-17T02:27:07.806Z,7.73
2023-02-17T02:29:45.989Z,8.27
2023-02-17T02:32:18.493Z,7.20
2023-02-17T02:34:51.245Z,7.37
2023-02-17T02:37:20.939Z,6.20
2023-02-17T02:39:48.644Z,7.30
2023-02-17T02:42:17.472Z,7.07
2023-02-17T02:44:43.800Z,8.40
2023-02-17T02:47:28.657Z,6.23
2023-02-17T02:49:55.079Z,8.77
2023-02-17T02:52:24.378Z,7.97
2023-02-17T02:54:53.700Z,7.73
2023-02-17T02:57:39.012Z,8.00
2023-02-17T03:00:23.356Z,8.60
2023-02-17T03:02:52.492Z,8.23
2023-02-17T03:05:23.169Z,7.60
2023-02-17T03:07:54.714Z,8.10
2023-02-17T03:10:21.427Z,8.50
2023-02-17T03:12:47.919Z,8.33
2023-02-17T03:15:18.882Z,8.53
2023-02-17T03:17:45.190Z,7.27
2023-02-17T03:20:13.066Z,8.20
2023-02-17T03:22:40.762Z,6.40
2023-02-17T03:25:07.850Z,8.00
2023-02-17T03:27:34.166Z,7.97
2023-02-17T03:30:00.524Z,9.87
2023-02-17T03:32:27.022Z,9.93
2023-02-17T03:34:53.359Z,9.30
2023-02-17T03:37:19.813Z,8.97
2023-02-17T03:39:46.122Z,9.40
2023-02-17T03:42:12.414Z,9.00
2023-02-17T03:44:38.712Z,8.87
2023-02-17T03:47:05.019Z,9.23
2023-02-17T03:49:31.448Z,9.27
2023-02-17T03:51:59.428Z,8.70
2023-02-17T03:54:26.409Z,7.80
2023-02-17T03:56:52.820Z,7.17
2023-02-17T03:59:19.121Z,8.10
2023-02-17T04:01:45.432Z,6.67
2023-02-17T04:04:11.915Z,8.70
2023-02-17T04:06:38.250Z,4.83
2023-02-17T04:09:04.564Z,7.27
2023-02-17T04:11:30.850Z,7.83
2023-02-17T04:13:57.144Z,8.43
2023-02-17T04:16:23.507Z,8.60
2023-02-17T04:18:49.889Z,7.87
2023-02-17T04:21:16.214Z,7.33
2023-02-17T04:23:42.730Z,7.43
2023-02-17T04:26:09.182Z,7.53
2023-02-17T04:28:38.180Z,6.90
2023-02-17T04:31:04.716Z,6.67
2023-02-17T04:33:31.051Z,7.50
2023-02-17T04:35:59.468Z,8.47
2023-02-17T04:38:27.524Z,8.07
2023-02-17T04:40:57.200Z,10.33
2023-02-17T04:43:24.378Z,9.00
2023-02-17T04:45:50.859Z,10.20
2023-02-17T04:48:17.329Z,8.13
2023-02-17T04:50:43.633Z,9.50
2023-02-17T04:53:10.020Z,9.70
2023-02-17T04:55:36.457Z,10.43
2023-02-17T04:58:02.845Z,9.43
2023-02-17T05:00:29.118Z,10.40
2023-02-17T05:02:55.442Z,9.57
2023-02-17T05:05:21.747Z,10.23
2023-02-17T05:07:48.205Z,10.13
2023-02-17T05:10:15.406Z,10.30
2023-02-17T05:12:41.851Z,9.23
2023-02-17T05:15:08.470Z,9.50
2023-02-17T05:17:34.847Z,10.63
2023-02-17T05:20:01.575Z,9.27
2023-02-17T05:22:28.310Z,9.87
2023-02-17T05:24:54.629Z,8.03
2023-02-17T05:27:21.025Z,10.33
2023-02-17T05:29:47.466Z,8.70
2023-02-17T05:32:13.789Z,9.83
2023-02-17T05:34:40.116Z,9.97
2023-02-17T05:37:06.443Z,11.03
2023-02-17T05:39:32.760Z,10.23
2023-02-17T05:41:59.107Z,9.23
2023-02-17T05:44:25.421Z,8.50
2023-02-17T05:46:51.885Z,9.33
2023-02-17T05:49:18.349Z,9.73
2023-02-17T05:51:44.729Z,10.00
2023-02-17T05:54:11.070Z,7.50
2023-02-17T05:56:37.633Z,9.63
2023-02-17T05:59:03.984Z,9.10
2023-02-17T06:01:30.318Z,8.33
2023-02-17T06:03:56.708Z,9.67
2023-02-17T06:06:23.041Z,9.80
2023-02-17T06:08:49.350Z,10.10
2023-02-17T06:11:15.735Z,10.10
2023-02-17T06:13:42.109Z,7.70
2023-02-17T06:16:08.742Z,10.37
2023-02-17T06:18:35.245Z,7.97
2023-02-17T06:21:01.544Z,7.83
2023-02-17T06:23:28.108Z,8.87
2023-02-17T06:25:54.760Z,8.53
2023-02-17T06:28:21.225Z,7.70
2023-02-17T06:30:47.567Z,7.13
2023-02-17T06:33:13.904Z,6.73
2023-02-17T06:35:40.330Z,8.30
2023-02-17T06:38:06.876Z,8.20
2023-02-17T06:40:33.348Z,8.70
2023-02-17T06:42:59.874Z,7.57
2023-02-17T06:45:26.187Z,6.03
2023-02-17T06:47:52.587Z,8.67
2023-02-17T06:50:18.968Z,9.33
2023-02-17T06:52:45.306Z,5.93
2023-02-17T06:55:11.629Z,8.43
2023-02-17T06:57:37.957Z,7.87
2023-02-17T07:00:04.949Z,8.20
2023-02-17T07:02:31.432Z,8.67
2023-02-17T07:04:57.814Z,8.63
2023-02-17T07:07:24.250Z,8.37
2023-02-17T07:09:50.571Z,9.10
2023-02-17T07:12:16.968Z,7.93
2023-02-17T07:14:43.277Z,7.77
2023-02-17T07:17:09.653Z,8.43
2023-02-17T07:19:36.004Z,8.63
2023-02-17T07:22:02.702Z,8.07
2023-02-17T07:24:29.008Z,8.47
2023-02-17T07:26:56.156Z,9.43
2023-02-17T07:29:23.015Z,8.03
2023-02-17T07:31:49.533Z,7.87
2023-02-17T07:34:15.883Z,6.73
2023-02-17T07:36:42.200Z,8.23
2023-02-17T07:39:08.541Z,7.53
2023-02-17T07:41:34.922Z,6.80
2023-02-17T07:44:01.229Z,7.43
2023-02-17T07:46:27.711Z,7.23
2023-02-17T07:48:54.917Z,7.13
2023-02-17T07:51:22.211Z,7.70
2023-02-17T07:53:49.008Z,8.03
2023-02-17T07:56:16.443Z,7.10
2023-02-17T07:58:43.999Z,8.10
2023-02-17T08:01:11.998Z,6.93
2023-02-17T08:03:39.085Z,7.33
2023-02-17T08:06:08.842Z,5.50
2023-02-17T08:08:53.568Z,6.17
2023-02-17T08:11:48.224Z,7.07
2023-02-17T08:14:15.291Z,6.10
2023-02-17T08:16:41.682Z,6.30
2023-02-17T08:19:09.128Z,6.13
2023-02-17T08:21:35.587Z,5.23
2023-02-17T08:24:01.927Z,5.87
2023-02-17T08:26:28.558Z,6.23
2023-02-17T08:28:55.431Z,6.37
2023-02-17T08:31:23.713Z,6.30
2023-02-17T08:33:50.154Z,5.67
2023-02-17T08:36:16.678Z,6.53
2023-02-17T08:38:44.867Z,5.70
2023-02-17T08:41:15.142Z,4.20
2023-02-17T08:43:42.210Z,5.53
2023-02-17T08:46:09.553Z,5.27
2023-02-17T08:48:36.801Z,5.23
2023-02-17T08:51:03.863Z,5.83
2023-02-17T08:53:30.222Z,5.33
2023-02-17T08:55:56.581Z,5.13
2023-02-17T08:58:23.037Z,5.47
2023-02-17T09:00:49.551Z,4.87
2023-02-17T09:03:16.191Z,4.97
2023-02-17T09:05:42.962Z,4.37
2023-02-17T09:08:10.980Z,4.80
2023-02-17T09:10:37.755Z,4.83
2023-02-17T09:13:04.393Z,4.10
2023-02-17T09:15:31.027Z,4.80
2023-02-17T09:17:57.421Z,3.73
2023-02-17T09:20:25.331Z,4.73
2023-02-17T09:22:52.586Z,4.17
2023-02-17T09:25:20.163Z,5.00
2023-02-17T09:27:46.825Z,4.40
2023-02-17T09:30:13.442Z,5.73
2023-02-17T09:32:43.100Z,2.83
2023-02-17T09:35:12.984Z,5.03
2023-02-17T09:37:39.352Z,4.27
2023-02-17T09:40:06.024Z,4.43
2023-02-17T09:42:35.136Z,4.63
2023-02-17T09:45:11.868Z,5.57
2023-02-17T09:47:42.546Z,5.80
2023-02-17T09:50:13.875Z,4.10
2023-02-17T09:52:53.735Z,4.10
2023-02-17T09:55:23.588Z,4.20
2023-02-17T09:58:04.491Z,5.70
2023-02-17T10:00:52.176Z,4.47
2023-02-17T10:03:20.475Z,4.57
2023-02-17T10:05:53.104Z,4.90
2023-02-17T10:08:22.482Z,4.57
2023-02-17T10:10:48.813Z,4.07
2023-02-17T10:13:17.318Z,4.33
2023-02-17T10:15:46.603Z,4.43
2023-02-17T10:18:16.236Z,4.33
2023-02-17T10:20:47.613Z,5.17
2023-02-17T10:23:13.971Z,4.80
2023-02-17T10:26:01.070Z,5.37
2023-02-17T10:28:27.346Z,5.23
2023-02-17T10:30:58.188Z,5.03
2023-02-17T10:33:36.102Z,5.30
2023-02-17T10:36:11.517Z,6.40
2023-02-17T10:38:40.851Z,6.50
2023-02-17T10:41:09.991Z,5.73
2023-02-17T10:43:36.316Z,5.87
2023-02-17T10:46:05.130Z,5.87
2023-02-17T10:49:01.970Z,5.27
2023-02-17T10:51:29.507Z,3.60
2023-02-17T10:54:12.677Z,3.70
2023-02-17T10:56:41.373Z,4.10
2023-02-17T10:59:13.483Z,5.27
2023-02-17T11:01:39.980Z,5.57
2023-02-17T11:04:07.614Z,4.30
2023-02-17T11:06:37.313Z,5.23
2023-02-17T11:09:05.872Z,5.83
2023-02-17T11:11:34.344Z,5.13
2023-02-17T11:14:06.662Z,6.03
2023-02-17T11:16:33.348Z,5.90
2023-02-17T11:19:00.651Z,6.07
2023-02-17T11:21:28.202Z,4.77
2023-02-17T11:23:56.289Z,6.10
2023-02-17T11:26:25.366Z,4.73
2023-02-17T11:28:51.743Z,4.97
2023-02-17T11:31:25.751Z,4.73
2023-02-17T11:33:52.223Z,4.50
2023-02-17T11:36:23.304Z,5.23
2023-02-17T11:38:49.622Z,4.90
2023-02-17T11:41:16.035Z,4.60
2023-02-17T11:43:51.176Z,5.60
2023-02-17T11:46:20.314Z,5.50
2023-02-17T11:48:53.159Z,5.77
2023-02-17T11:51:25.508Z,6.30
2023-02-17T11:53:57.443Z,6.23
2023-02-17T11:56:26.695Z,5.73
2023-02-17T11:59:08.235Z,5.77
2023-02-17T12:01:46.935Z,5.80
2023-02-17T12:04:39.716Z,5.70
2023-02-17T12:07:06.570Z,5.70
2023-02-17T12:09:32.978Z,5.40
2023-02-17T12:12:03.444Z,5.17
2023-02-17T12:14:36.016Z,5.37
2023-02-17T12:17:19.533Z,5.00
2023-02-17T12:19:45.888Z,4.90
2023-02-17T12:22:18.188Z,5.80
2023-02-17T12:24:54.341Z,5.20
2023-02-17T12:27:38.274Z,5.67
2023-02-17T12:30:05.813Z,5.07
2023-02-17T12:32:38.138Z,4.50
2023-02-17T12:35:34.330Z,4.90
2023-02-17T12:38:02.240Z,4.67
2023-02-17T12:40:32.521Z,5.83
2023-02-17T12:43:01.493Z,4.53
2023-02-17T12:45:36.423Z,4.43
2023-02-17T12:48:05.097Z,5.00
2023-02-17T12:50:31.744Z,4.20
2023-02-17T12:53:01.216Z,4.43
2023-02-17T12:55:37.588Z,4.83
2023-02-17T12:58:07.837Z,6.77
2023-02-17T13:00:36.544Z,5.37
2023-02-17T13:03:03.599Z,4.77
2023-02-17T13:05:33.428Z,4.83
2023-02-17T13:08:08.377Z,4.57
2023-02-17T13:10:35.898Z,3.73
2023-02-17T13:13:04.573Z,3.97
2023-02-17T13:15:35.495Z,3.80
2023-02-17T13:18:03.684Z,5.17
2023-02-17T13:21:02.263Z,4.57
2023-02-17T13:23:32.085Z,4.90
2023-02-17T13:26:06.694Z,4.27
2023-02-17T13:28:37.762Z,4.53
2023-02-17T13:31:16.361Z,4.50
2023-02-17T13:33:47.409Z,4.97
2023-02-17T13:36:34.112Z,3.97
2023-02-17T13:39:02.116Z,4.63
2023-02-17T13:41:29.792Z,3.93
2023-02-17T13:43:58.287Z,4.97
2023-02-17T13:46:26.633Z,4.47
2023-02-17T13:49:06.161Z,3.83
2023-02-17T13:51:33.647Z,4.60
2023-02-17T13:54:08.074Z,3.20
2023-02-17T13:56:34.678Z,3.53
2023-02-17T13:59:08.150Z,4.60
2023-02-17T14:01:36.259Z,4.07
2023-02-17T14:04:03.843Z,4.70
2023-02-17T14:06:32.485Z,3.43
2023-02-17T14:08:58.868Z,4.13
2023-02-17T14:11:26.599Z,3.40
2023-02-17T14:13:54.560Z,4.17
2023-02-17T14:16:31.632Z,3.50
2023-02-17T14:19:09.856Z,4.00
2023-02-17T14:21:37.683Z,3.80
2023-02-17T14:24:04.155Z,3.43
2023-02-17T14:26:38.057Z,4.33
2023-02-17T14:29:05.872Z,4.30
2023-02-17T14:31:39.136Z,4.17
2023-02-17T14:34:05.862Z,4.20
2023-02-17T14:36:36.924Z,5.33
2023-02-17T14:39:05.085Z,3.57
2023-02-17T14:41:31.685Z,3.17
2023-02-17T14:44:00.680Z,3.57
2023-02-17T14:46:27.413Z,3.70
2023-02-17T14:48:54.120Z,3.03
2023-02-17T14:51:24.553Z,3.43
2023-02-17T14:53:51.159Z,3.20
2023-02-17T14:56:17.493Z,3.07
2023-02-17T14:58:43.817Z,3.33
2023-02-17T15:01:12.642Z,3.53
2023-02-17T15:03:39.050Z,2.27
2023-02-17T15:06:10.568Z,3.30
2023-02-17T15:08:37.383Z,4.00
2023-02-17T15:11:03.714Z,3.27
2023-02-17T15:13:31.786Z,2.97
2023-02-17T15:15:58.598Z,4.00
2023-02-17T15:18:27.673Z,3.70
2023-02-17T15:20:54.422Z,3.60
2023-02-17T15:23:22.382Z,3.20
2023-02-17T15:25:49.157Z,3.37
2023-02-17T15:28:16.820Z,3.03
2023-02-17T15:30:45.918Z,4.17
2023-02-17T15:33:13.179Z,4.70
2023-02-17T15:35:40.509Z,3.70
2023-02-17T15:38:09.944Z,3.10
2023-02-17T15:40:36.678Z,3.27
2023-02-17T15:43:05.652Z,1.93
2023-02-17T15:45:33.002Z,4.20
2023-02-17T15:48:11.494Z,4.13
2023-02-17T15:50:38.120Z,3.30
2023-02-17T15:53:04.556Z,4.77
2023-02-17T15:55:31.015Z,3.60
2023-02-17T15:57:59.059Z,3.03
2023-02-17T16:00:31.801Z,3.03
2023-02-17T16:02:58.780Z,3.47
2023-02-17T16:05:27.172Z,4.17
2023-02-17T16:07:55.003Z,2.57
2023-02-17T16:10:22.667Z,3.40
2023-02-17T16:12:50.369Z,2.97
2023-02-17T16:15:18.194Z,2.93
2023-02-17T16:17:44.690Z,3.30
2023-02-17T16:20:18.934Z,3.53
2023-02-17T16:22:45.734Z,3.77
2023-02-17T16:25:12.857Z,3.60
2023-02-17T16:27:39.620Z,3.80
2023-02-17T16:30:22.677Z,2.90
2023-02-17T16:32:49.696Z,3.13
2023-02-17T16:35:17.469Z,3.93
2023-02-17T16:37:48.427Z,2.47
2023-02-17T16:40:16.132Z,3.00
2023-02-17T16:42:42.677Z,5.53
2023-02-17T16:45:19.529Z,3.07
2023-02-17T16:47:47.138Z,3.13
2023-02-17T16:50:23.992Z,4.77
2023-02-17T16:52:51.253Z,2.50
2023-02-17T16:55:21.277Z,3.83
2023-02-17T16:57:48.322Z,3.40
2023-02-17T17:00:16.812Z,3.83
2023-02-17T17:02:43.761Z,3.07
2023-02-17T17:05:10.750Z,3.30
2023-02-17T17:07:38.468Z,4.73
2023-02-17T17:10:16.312Z,3.30
2023-02-17T17:12:43.769Z,3.83
2023-02-17T17:15:10.493Z,4.00
2023-02-17T17:17:39.615Z,5.00
2023-02-17T17:20:06.421Z,3.73
2023-02-17T17:22:32.822Z,4.10
2023-02-17T17:24:59.667Z,2.47
2023-02-17T17:27:25.972Z,3.10
2023-02-17T17:29:52.352Z,3.17
2023-02-17T17:32:18.733Z,2.90
2023-02-17T17:34:45.378Z,3.53
2023-02-17T17:37:11.789Z,3.40
2023-02-17T17:39:39.792Z,5.13
2023-02-17T17:42:06.138Z,4.17
2023-02-17T17:44:33.272Z,3.80
2023-02-17T17:46:59.588Z,3.53
2023-02-17T17:49:25.980Z,3.57
2023-02-17T17:51:52.300Z,4.00
2023-02-17T17:54:18.751Z,4.37
2023-02-17T17:56:45.257Z,3.50
2023-02-17T17:59:12.636Z,3.73
2023-02-17T18:01:39.185Z,3.70
2023-02-17T18:04:07.925Z,4.47
2023-02-17T18:06:37.337Z,4.40
2023-02-17T18:09:06.991Z,4.70
2023-02-17T18:11:34.586Z,4.70
2023-02-17T18:14:02.457Z,3.97
2023-02-17T18:16:29.484Z,4.40
2023-02-17T18:18:57.829Z,4.70
2023-02-17T18:21:24.188Z,4.37
2023-02-17T18:23:50.541Z,4.73
2023-02-17T18:26:18.100Z,4.47
2023-02-17T18:28:44.819Z,3.87
2023-02-17T18:31:12.136Z,4.97
2023-02-17T18:33:38.663Z,5.30
2023-02-17T18:36:12.136Z,4.40
2023-02-17T18:38:38.738Z,4.17
2023-02-17T18:41:05.177Z,4.33
2023-02-17T18:43:31.889Z,5.43
2023-02-17T18:45:58.880Z,4.83
2023-02-17T18:48:25.373Z,3.70
2023-02-17T18:50:51.985Z,5.83
2023-02-17T18:53:18.333Z,4.87
2023-02-17T18:55:44.636Z,5.17
2023-02-17T18:58:12.404Z,4.73
2023-02-17T19:00:38.844Z,4.33
2023-02-17T19:03:05.177Z,5.27
2023-02-17T19:05:31.592Z,5.40
2023-02-17T19:07:58.457Z,6.07
2023-02-17T19:10:24.804Z,4.80
2023-02-17T19:12:51.115Z,4.93
2023-02-17T19:15:20.811Z,5.57
2023-02-17T19:17:48.583Z,6.50
2023-02-17T19:20:16.941Z,4.17
2023-02-17T19:22:43.336Z,5.03
2023-02-17T19:25:09.695Z,5.73
2023-02-17T19:27:38.071Z,5.83
2023-02-17T19:30:04.550Z,5.77
2023-02-17T19:32:30.883Z,5.07
2023-02-17T19:34:57.180Z,5.70
2023-02-17T19:37:23.491Z,5.43
2023-02-17T19:39:49.798Z,7.07
2023-02-17T19:42:16.127Z,6.33
2023-02-17T19:44:42.431Z,4.63
2023-02-17T19:47:08.779Z,5.47
2023-02-17T19:49:35.146Z,5.10
2023-02-17T19:52:01.448Z,5.40
2023-02-17T19:54:27.876Z,6.03
2023-02-17T19:56:54.181Z,5.80
2023-02-17T19:59:20.540Z,4.87
2023-02-17T20:01:46.868Z,5.03
2023-02-17T20:04:13.616Z,5.07
2023-02-17T20:06:42.361Z,5.67
2023-02-17T20:09:11.696Z,5.70
2023-02-17T20:11:38.064Z,5.33
2023-02-17T20:14:04.527Z,4.40
2023-02-17T20:16:30.989Z,5.10
2023-02-17T20:18:59.421Z,5.63
2023-02-17T20:21:28.076Z,6.03
2023-02-17T20:23:55.037Z,5.53
2023-02-17T20:26:23.927Z,5.07
2023-02-17T20:28:50.314Z,5.70
2023-02-17T20:31:16.883Z,5.63
2023-02-17T20:33:43.410Z,5.87
2023-02-17T20:36:11.065Z,4.83
2023-02-17T20:38:37.976Z,5.13
2023-02-17T20:41:05.245Z,5.30
2023-02-17T20:43:31.638Z,5.63
2023-02-17T20:45:58.121Z,5.63
2023-02-17T20:48:27.609Z,6.03
2023-02-17T20:50:55.048Z,5.67
2023-02-17T20:53:21.382Z,4.77
2023-02-17T20:55:47.818Z,6.20
2023-02-17T20:58:14.152Z,4.63
2023-02-17T21:00:40.595Z,5.30
2023-02-17T21:03:06.946Z,5.27
2023-02-17T21:05:33.415Z,5.73
2023-02-17T21:07:59.735Z,4.63
2023-02-17T21:10:27.799Z,5.83
2023-02-17T21:12:54.220Z,5.77
2023-02-17T21:15:20.828Z,5.20
2023-02-17T21:17:47.387Z,4.90
2023-02-17T21:20:15.660Z,5.00
2023-02-17T21:22:42.053Z,5.90
2023-02-17T21:25:08.837Z,5.43
2023-02-17T21:27:35.655Z,5.00
2023-02-17T21:30:02.254Z,5.23
2023-02-17T21:32:28.614Z,5.47
2023-02-17T21:34:54.919Z,4.63
2023-02-17T21:37:21.312Z,5.07
2023-02-17T21:39:47.742Z,5.07
2023-02-17T21:42:35.879Z,5.37
2023-02-17T21:45:02.403Z,5.70
2023-02-17T21:47:28.817Z,5.20
2023-02-17T21:49:55.150Z,5.43
2023-02-17T21:52:22.634Z,5.23
2023-02-17T21:54:49.065Z,5.00
2023-02-17T21:57:15.446Z,5.10
2023-02-17T21:59:42.635Z,4.77
2023-02-17T22:02:10.641Z,4.60
2023-02-17T22:04:37.034Z,7.50
2023-02-17T22:07:03.478Z,6.00
2023-02-17T22:09:29.901Z,5.47
2023-02-17T22:11:56.450Z,4.87
2023-02-17T22:14:22.798Z,5.87
2023-02-17T22:16:49.291Z,5.67
2023-02-17T22:19:18.405Z,6.10
2023-02-17T22:21:45.342Z,5.70
2023-02-17T22:24:12.020Z,5.80
2023-02-17T22:26:38.434Z,5.80
2023-02-17T22:29:05.237Z,5.50
2023-02-17T22:31:32.511Z,6.87
2023-02-17T22:33:59.892Z,5.03
2023-02-17T22:36:27.524Z,5.93
2023-02-17T22:38:54.089Z,6.70
2023-02-17T22:41:21.688Z,5.83
2023-02-17T22:43:48.383Z,5.77
2023-02-17T22:46:16.398Z,5.53
2023-02-17T22:48:43.392Z,5.67
2023-02-17T22:51:11.395Z,5.53
2023-02-17T22:53:38.139Z,5.50
2023-02-17T22:56:05.542Z,5.80
2023-02-17T22:58:32.311Z,6.10
2023-02-17T23:01:02.644Z,6.87
2023-02-17T23:03:29.007Z,5.83
2023-02-17T23:05:59.182Z,6.33
2023-02-17T23:08:26.073Z,5.63
2023-02-17T23:10:54.584Z,6.70
2023-02-17T23:13:21.047Z,6.13
2023-02-17T23:15:47.360Z,6.30
2023-02-17T23:18:17.647Z,6.60
2023-02-17T23:20:45.467Z,5.60
2023-02-17T23:23:11.866Z,7.27
2023-02-17T23:25:39.001Z,7.17
2023-02-17T23:28:06.147Z,6.70
2023-02-17T23:30:32.718Z,6.40
2023-02-17T23:32:59.302Z,6.60
2023-02-17T23:35:25.856Z,6.23
2023-02-17T23:37:52.339Z,6.80
2023-02-17T23:40:18.877Z,6.73
2023-02-17T23:42:45.477Z,5.57
2023-02-17T23:45:11.969Z,6.50
2023-02-17T23:47:38.612Z,7.10
2023-02-17T23:50:05.649Z,7.23
2023-02-17T23:52:32.049Z,6.83
2023-02-17T23:54:58.486Z,6.97
2023-02-17T23:57:24.907Z,7.23
2023-02-17T23:59:51.396Z,6.80
